• vieta
  • image
  • image
  • image
mod_vvisit_countermod_vvisit_countermod_vvisit_countermod_vvisit_countermod_vvisit_countermod_vvisit_counter
mod_vvisit_counterŠiandien491
mod_vvisit_counterVakar534
mod_vvisit_counterŠią savaitę1025
mod_vvisit_counterPraėjusią savaitę5522
mod_vvisit_counterŠį mėnesį11510
mod_vvisit_counterPraėjusį mėnesį23031
mod_vvisit_counterViso997467

Mes turime: 16 svečius online
Jūsų IP: 54.161.116.225
 , 
Šiandien: Spa 16, 2018
Oro uostas / Informacija keleiviams / Taisyklės / Muitinė

Muitinė

Čia Jūs galite rasti naudingą informaciją keliaujant lėktuvu.

Sekanti informacija yra prieinama Lietuvos Respublikos Muitinės interneto svetainėje:

Daugiau informacijos galite rasti čia: Lietuvos Respublikos Muitinė

Šiandien

Antradienis, 16 Spalis 2018

Orų prognozė aviacijai

[source: ADDS]
METAR
EYSA 161450Z 19005KT CAVOK 16/06 Q1022 BLU NOSIG =
TAF EYSA 161404Z 1615/1624 19008KT CAVOK
TAF
TAF EYSA 161404Z 1615/1624 19008KT CAVOK =
SR / SS: 05:00 / 15:26 UTC (EYSA 2018-10-16)

Paieška

Lankytojai

Mes turime 16 svečius online

tic logo lt